Time;durP1;ratioP1;P1;durP2;ratioP2;P2;SDS_P1;SDS_P2;PMS_P1;PMS_P2;Temp;Humidity;BMP_temperature;BMP_pressure;BME280_temperature;BME280_humidity;BME280_pressure;Samples;Min_cycle;Max_cycle;Signal;HPM_P1;HPM_P2
2022/10/14 00:01:18;;;;;;;;;8.67;8.67;;;;;17.02;79.27;100984.13;5077962;28;45277;-67
2022/10/14 00:03:44;;;;;;;;;10.67;10.33;;;;;17.02;79.54;100978.72;5088020;28;45252;-69
2022/10/14 00:06:15;;;;;;;;;10.33;10.33;;;;;16.98;79.03;100966.13;5082981;28;45425;-67
2022/10/14 00:08:42;;;;;;;;;7.00;6.33;;;;;16.59;78.79;100898.47;5085437;28;46136;-67
2022/10/14 00:11:16;;;;;;;;;8.67;8.00;;;;;17.02;78.52;100981.44;5072972;28;46377;-69
2022/10/14 00:13:41;;;;;;;;;6.33;6.00;;;;;16.99;79.08;100981.41;5077616;28;45307;-68
2022/10/14 00:16:15;;;;;;;;;8.33;8.33;;;;;16.98;79.06;100974.22;5083054;28;45505;-68
2022/10/14 00:18:40;;;;;;;;;5.00;4.67;;;;;16.97;79.32;100975.13;5088423;28;45294;-69
2022/10/14 00:21:06;;;;;;;;;4.00;4.00;;;;;16.65;78.91;100918.31;5075921;28;47928;-67
2022/10/14 00:23:32;;;;;;;;;6.00;5.00;;;;;16.80;79.12;100955.25;5093411;28;44993;-68
2022/10/14 00:25:57;;;;;;;;;8.67;8.00;;;;;16.78;79.14;100947.13;5091418;28;56833;-69
2022/10/14 00:28:22;;;;;;;;;8.00;6.33;;;;;16.85;79.85;100954.38;5090144;28;45339;-66
2022/10/14 00:31:01;;;;;;;;;8.00;8.00;;;;;16.90;80.10;100965.22;5087274;28;45387;-67
2022/10/14 00:33:27;;;;;;;;;9.00;5.33;;;;;16.86;80.11;100949.88;5089857;28;45314;-68
2022/10/14 00:35:57;;;;;;;;;4.33;3.67;;;;;16.85;79.99;100949.00;5094184;28;45173;-67
2022/10/14 00:38:23;;;;;;;;;6.67;5.00;;;;;16.76;79.72;100920.16;5093783;28;45285;-68
2022/10/14 00:40:48;;;;;;;;;5.67;4.33;;;;;16.93;79.79;100946.31;5094663;28;45506;-67
2022/10/14 00:43:13;;;;;;;;;3.67;3.67;;;;;16.86;79.78;100928.28;5091297;28;51744;-66
2022/10/14 00:45:39;;;;;;;;;5.67;4.33;;;;;16.79;80.14;100899.47;5093012;28;45258;-67
2022/10/14 00:48:06;;;;;;;;;6.33;5.00;;;;;16.87;79.77;100912.09;5093009;28;45209;-66
2022/10/14 00:50:32;;;;;;;;;3.00;3.00;;;;;16.98;79.86;100927.41;5104066;27;45996;-67
2022/10/14 00:52:58;;;;;;;;;6.33;4.67;;;;;16.83;79.41;100895.84;5106619;27;45455;-68
2022/10/14 00:55:24;;;;;;;;;3.00;3.00;;;;;16.90;79.31;100913.94;5112016;27;45174;-66
2022/10/14 00:57:50;;;;;;;;;3.00;3.00;;;;;17.01;79.15;100930.13;5112783;27;45999;-68
2022/10/14 01:00:18;;;;;;;;;4.33;3.33;;;;;17.01;79.35;100928.38;5110915;27;46281;-67
2022/10/14 01:02:45;;;;;;;;;4.67;3.33;;;;;16.96;78.82;100913.94;5113834;27;45220;-69
2022/10/14 01:05:13;;;;;;;;;4.00;4.00;;;;;16.86;78.96;100899.53;5115777;27;45193;-66
2022/10/14 01:07:48;;;;;;;;;4.00;4.00;;;;;17.01;78.92;100917.56;5114102;27;44986;-67
2022/10/14 01:10:27;;;;;;;;;2.00;2.00;;;;;16.98;78.93;100916.63;5113217;27;45989;-67
2022/10/14 01:13:02;;;;;;;;;3.67;3.00;;;;;16.94;79.00;100910.31;5109225;27;44924;-67
2022/10/14 01:15:54;;;;;;;;;3.00;3.00;;;;;16.90;79.57;100916.63;5106938;27;44949;-67
2022/10/14 01:18:42;;;;;;;;;3.00;3.00;;;;;16.70;79.31;100878.75;5115001;27;45030;-67
2022/10/14 01:21:41;;;;;;;;;2.00;2.00;;;;;16.79;79.60;100897.66;5108161;27;47575;-67
2022/10/14 01:24:22;;;;;;;;;4.00;3.67;;;;;16.80;79.71;100904.88;5112622;27;45125;-67
2022/10/14 01:27:12;;;;;;;;;3.00;3.00;;;;;16.78;80.13;100898.56;5113301;27;45170;-67
2022/10/14 01:30:04;;;;;;;;;3.00;2.00;;;;;16.77;79.83;100894.94;5109624;27;45228;-67
2022/10/14 01:32:51;;;;;;;;;4.33;3.00;;;;;16.80;79.76;100894.06;5112029;27;45216;-67
2022/10/14 01:35:36;;;;;;;;;4.00;2.67;;;;;16.82;79.96;100891.38;5114337;27;45022;-67
2022/10/14 01:38:16;;;;;;;;;2.67;2.67;;;;;16.77;79.65;100892.25;5114139;27;45987;-68
2022/10/14 01:41:09;;;;;;;;;2.67;2.67;;;;;16.81;80.11;100890.47;5114698;27;45051;-66
2022/10/14 01:43:37;;;;;;;;;6.33;3.00;;;;;16.70;79.62;100878.75;5112831;27;46124;-68
2022/10/14 01:46:05;;;;;;;;;4.67;4.67;;;;;16.76;80.18;100886.84;5112638;27;45204;-67
2022/10/14 01:48:37;;;;;;;;;3.67;3.00;;;;;16.38;79.97;100815.72;5113697;27;45133;-67
2022/10/14 01:51:10;;;;;;;;;4.33;4.33;;;;;16.66;80.21;100863.44;5112561;27;45204;-67
2022/10/14 01:53:42;;;;;;;;;3.67;3.67;;;;;16.72;80.69;100866.16;5111926;27;45052;-68
2022/10/14 01:56:10;;;;;;;;;3.00;3.00;;;;;16.79;80.60;100878.75;5113757;27;45180;-67
2022/10/14 01:58:38;;;;;;;;;4.33;4.00;;;;;16.73;80.48;100874.25;5108954;27;45331;-66
2022/10/14 02:01:05;;;;;;;;;4.67;4.67;;;;;16.77;80.77;100867.97;5108331;27;45185;-67
2022/10/14 02:03:42;;;;;;;;;2.67;2.00;;;;;16.69;80.64;100858.94;5111292;27;46071;-66
2022/10/14 02:06:18;;;;;;;;;4.00;4.00;;;;;16.77;80.62;100878.75;5112532;27;44884;-68
2022/10/14 02:09:13;;;;;;;;;4.00;4.00;;;;;16.75;80.49;100872.47;5110576;27;45201;-67
2022/10/14 02:11:51;;;;;;;;;4.00;4.00;;;;;16.68;80.51;100858.94;5110797;27;45357;-67
2022/10/14 02:14:32;;;;;;;;;3.67;3.67;;;;;16.73;80.61;100866.16;5108878;27;45972;-68
2022/10/14 02:17:11;;;;;;;;;5.00;4.00;;;;;16.72;80.60;100864.34;5110681;27;45082;-67
2022/10/14 02:19:47;;;;;;;;;5.00;5.00;;;;;16.70;81.14;100851.78;5104611;27;45200;-66
2022/10/14 02:22:36;;;;;;;;;6.67;4.00;;;;;16.72;81.21;100849.97;5112465;27;45336;-66
2022/10/14 02:25:22;;;;;;;;;4.00;4.00;;;;;16.75;80.74;100856.28;5110749;27;47419;-66
2022/10/14 02:27:51;;;;;;;;;3.00;2.67;;;;;16.74;81.07;100853.56;5104682;27;45146;-66
2022/10/14 02:30:17;;;;;;;;;3.00;3.00;;;;;16.74;81.06;100856.28;5108894;27;44939;-67
2022/10/14 02:32:48;;;;;;;;;4.67;2.33;;;;;16.75;81.51;100861.66;5112799;27;45159;-69
2022/10/14 02:35:16;;;;;;;;;2.67;2.67;;;;;16.68;81.13;100837.34;5112571;27;45635;-66
2022/10/14 02:37:45;;;;;;;;;5.00;5.00;;;;;16.77;80.92;100849.06;5112191;27;45177;-68
2022/10/14 02:40:17;;;;;;;;;6.33;4.00;;;;;16.72;81.33;100842.78;5112883;27;45149;-67
2022/10/14 02:42:42;;;;;;;;;1.00;1.00;;;;;16.72;81.30;100847.28;5110971;27;45371;-66
2022/10/14 02:45:09;;;;;;;;;8.00;6.33;;;;;16.68;81.64;100848.16;5109562;27;54381;-67
2022/10/14 02:47:35;;;;;;;;;3.00;3.00;;;;;16.64;81.16;100841.84;5109653;27;45324;-67
2022/10/14 02:50:00;;;;;;;;;4.00;3.00;;;;;16.70;81.71;100841.00;5109125;27;45054;-66
2022/10/14 02:52:25;;;;;;;;;6.33;3.67;;;;;16.68;81.54;100840.06;5110216;27;45328;-67
2022/10/14 02:54:51;;;;;;;;;3.67;2.00;;;;;16.66;81.71;100834.66;5109555;27;56302;-68
2022/10/14 02:57:16;;;;;;;;;5.00;3.00;;;;;16.70;81.59;100841.00;5112463;27;62556;-68
2022/10/14 02:59:41;;;;;;;;;4.67;2.67;;;;;16.67;82.43;100846.38;5112792;27;45136;-67
2022/10/14 03:02:07;;;;;;;;;4.67;2.00;;;;;16.27;82.11;100776.09;5113016;27;45008;-66
2022/10/14 03:04:34;;;;;;;;;6.33;5.00;;;;;16.65;82.79;100846.38;5111503;27;46546;-66
2022/10/14 03:06:59;;;;;;;;;2.67;2.67;;;;;16.60;82.38;100845.44;5112564;27;45085;-67
2022/10/14 03:09:24;;;;;;;;;0.33;0.00;;;;;16.32;82.68;100795.91;5111855;27;45383;-68
2022/10/14 03:11:50;;;;;;;;;3.67;1.67;;;;;16.61;82.70;100852.63;5111637;27;45069;-68
2022/10/14 03:14:15;;;;;;;;;4.00;4.00;;;;;16.65;83.20;100845.47;5113455;27;45248;-66
2022/10/14 03:16:40;;;;;;;;;4.67;3.00;;;;;16.61;82.68;100849.94;5113464;27;44957;-67
2022/10/14 03:19:06;;;;;;;;;2.67;2.67;;;;;16.54;83.37;100838.22;5109355;27;45272;-67
2022/10/14 03:21:31;;;;;;;;;2.00;2.00;;;;;16.63;82.86;100844.53;5107416;27;44960;-68
2022/10/14 03:23:56;;;;;;;;;5.00;4.00;;;;;16.58;83.08;100840.06;5109250;27;46628;-68
2022/10/14 03:26:22;;;;;;;;;5.00;3.33;;;;;16.45;83.14;100810.31;5110774;27;51612;-67
2022/10/14 03:28:48;;;;;;;;;5.00;2.67;;;;;16.61;82.81;100840.94;5109695;27;45181;-67
2022/10/14 03:31:13;;;;;;;;;4.67;3.67;;;;;16.66;82.63;100848.16;5110209;27;45133;-68
2022/10/14 03:33:39;;;;;;;;;3.00;2.00;;;;;16.64;82.44;100827.47;5109530;27;45630;-67
2022/10/14 03:36:04;;;;;;;;;1.67;1.67;;;;;16.61;82.58;100817.56;5109752;27;45026;-66
2022/10/14 03:38:29;;;;;;;;;2.67;2.67;;;;;16.71;81.88;100838.28;5107936;27;45381;-66
2022/10/14 03:40:55;;;;;;;;;3.00;3.00;;;;;16.62;82.05;100816.69;5107099;27;45315;-66
2022/10/14 03:43:20;;;;;;;;;6.00;4.00;;;;;16.72;82.13;100829.28;5111641;27;45282;-66
2022/10/14 03:45:46;;;;;;;;;4.33;2.00;;;;;16.72;82.06;100821.19;5111216;27;45411;-67
2022/10/14 03:48:11;;;;;;;;;3.33;3.33;;;;;16.74;81.42;100829.28;5109821;27;44991;-66
2022/10/14 03:50:36;;;;;;;;;3.00;3.00;;;;;16.73;81.61;100814.91;5095180;27;45287;-67
2022/10/14 03:53:02;;;;;;;;;1.00;1.00;;;;;16.47;81.14;100773.50;5089674;28;45370;-66
2022/10/14 03:55:28;;;;;;;;;4.00;4.00;;;;;16.62;81.46;100803.19;5090409;28;45260;-67
2022/10/14 03:57:54;;;;;;;;;3.00;3.00;;;;;16.75;81.24;100823.91;5090539;28;45163;-66
2022/10/14 04:00:19;;;;;;;;;1.67;1.67;;;;;16.48;80.33;100788.75;5090977;27;45239;-66
2022/10/14 04:02:44;;;;;;;;;3.00;3.00;;;;;16.71;80.33;100831.97;5090727;28;45389;-66
2022/10/14 04:05:10;;;;;;;;;0.67;0.67;;;;;16.66;80.82;100823.88;5090850;28;52269;-67
2022/10/14 04:07:35;;;;;;;;;0.67;0.67;;;;;16.64;80.42;100836.47;5090382;28;45217;-68
2022/10/14 04:10:01;;;;;;;;;2.00;1.00;;;;;16.62;80.16;100826.56;5091376;28;45143;-67
2022/10/14 04:12:26;;;;;;;;;3.00;1.33;;;;;16.52;80.35;100822.94;5088314;28;47862;-66
2022/10/14 04:14:55;;;;;;;;;0.33;0.33;;;;;16.56;80.26;100833.75;5088892;28;44898;-67
2022/10/14 04:17:22;;;;;;;;;0.33;0.33;;;;;16.55;79.99;100831.94;5072334;28;45153;-65
2022/10/14 04:19:47;;;;;;;;;1.67;1.33;;;;;16.55;79.67;100828.34;5090523;28;45077;-67
2022/10/14 04:22:12;;;;;;;;;0.00;0.00;;;;;16.52;79.96;100825.66;5071078;28;45817;-68
2022/10/14 04:24:38;;;;;;;;;0.67;0.33;;;;;16.36;80.03;100803.09;5085878;28;45529;-67
2022/10/14 04:27:03;;;;;;;;;0.00;0.00;;;;;16.51;80.53;100826.53;5086799;28;45382;-68
2022/10/14 04:29:28;;;;;;;;;2.00;1.33;;;;;16.56;80.32;100822.97;5088721;28;45448;-66
2022/10/14 04:31:54;;;;;;;;;1.67;1.00;;;;;16.50;80.21;100800.44;5085334;28;53983;-67
2022/10/14 04:34:19;;;;;;;;;0.67;0.67;;;;;16.65;79.80;100816.69;5090003;28;45087;-66
2022/10/14 04:36:44;;;;;;;;;0.67;0.67;;;;;16.66;80.06;100818.47;5090017;28;44923;-67
2022/10/14 04:39:10;;;;;;;;;2.67;1.00;;;;;16.65;79.94;100822.09;5087664;28;45904;-67
2022/10/14 04:41:35;;;;;;;;;1.67;1.00;;;;;16.70;78.99;100825.69;5087988;28;57936;-66
2022/10/14 04:44:00;;;;;;;;;1.67;1.00;;;;;16.52;79.29;100793.28;5087983;28;45240;-68
2022/10/14 04:46:26;;;;;;;;;0.33;0.33;;;;;16.55;78.79;100799.56;5087347;28;49102;-65
2022/10/14 04:48:51;;;;;;;;;1.00;0.67;;;;;16.69;79.21;100821.19;5088594;28;44950;-65
2022/10/14 04:51:16;;;;;;;;;0.67;0.67;;;;;16.66;78.77;100823.88;5105967;27;46750;-68
2022/10/14 04:53:42;;;;;;;;;0.67;0.67;;;;;16.62;78.56;100808.59;5109975;27;45289;-66
2022/10/14 04:56:07;;;;;;;;;1.67;1.67;;;;;16.56;78.59;100790.59;5109409;27;45146;-66
2022/10/14 04:58:33;;;;;;;;;2.00;2.00;;;;;16.23;78.08;100723.09;5111016;27;45217;-67
2022/10/14 05:00:58;;;;;;;;;3.00;2.00;;;;;16.72;78.20;100796.91;5109831;27;45155;-67
2022/10/14 05:03:23;;;;;;;;;1.67;0.67;;;;;16.71;78.58;100813.09;5112666;27;45059;-66
2022/10/14 05:05:50;;;;;;;;;1.00;1.00;;;;;16.67;78.10;100801.41;5113609;27;45199;-67
2022/10/14 05:08:15;;;;;;;;;2.00;2.00;;;;;16.76;78.15;100803.22;5112970;27;45308;-66
2022/10/14 05:10:41;;;;;;;;;1.00;1.00;;;;;16.75;77.80;100794.22;5114206;27;55530;-67
2022/10/14 05:13:06;;;;;;;;;3.00;1.67;;;;;16.75;77.77;100801.44;5114068;27;45559;-66
2022/10/14 05:15:32;;;;;;;;;1.33;1.33;;;;;16.77;77.49;100800.50;5111284;27;45302;-66
2022/10/14 05:17:57;;;;;;;;;2.33;1.00;;;;;16.77;77.54;100803.22;5103956;27;45364;-68
2022/10/14 05:20:23;;;;;;;;;3.00;3.00;;;;;16.78;77.85;100801.44;5111548;27;45308;-66
2022/10/14 05:22:48;;;;;;;;;2.00;2.00;;;;;16.73;77.76;100804.13;5112384;27;54155;-68
2022/10/14 05:25:13;;;;;;;;;9.00;9.00;;;;;16.57;77.63;100772.63;5109394;27;45251;-67
2022/10/14 05:27:39;;;;;;;;;16.67;16.33;;;;;16.75;77.85;100802.31;5115022;27;45106;-66
2022/10/14 05:30:04;;;;;;;;;5.00;3.67;;;;;16.77;77.98;100794.22;5112764;27;45533;-66
2022/10/14 05:32:30;;;;;;;;;3.00;3.00;;;;;16.79;77.93;100788.84;5111520;27;45259;-69
2022/10/14 05:34:55;;;;;;;;;3.00;3.00;;;;;16.70;77.91;100774.44;5110553;27;45452;-66
2022/10/14 05:37:20;;;;;;;;;1.67;1.67;;;;;16.77;77.28;100789.72;5112966;27;45288;-68
2022/10/14 05:39:46;;;;;;;;;2.00;2.00;;;;;16.76;77.58;100793.34;5109933;27;45593;-68
2022/10/14 05:42:11;;;;;;;;;2.33;2.33;;;;;16.77;77.47;100780.72;5111621;27;58976;-70
2022/10/14 05:44:36;;;;;;;;;9.67;4.00;;;;;16.71;77.79;100781.66;5114244;27;51086;-66
2022/10/14 05:47:02;;;;;;;;;2.00;2.00;;;;;16.75;77.36;100793.34;5113441;27;53635;-67
2022/10/14 05:49:27;;;;;;;;;3.00;2.67;;;;;16.36;77.64;100725.81;5109120;27;46451;-66
2022/10/14 05:51:52;;;;;;;;;3.33;3.33;;;;;16.75;77.64;100780.72;5073660;28;44937;-66
2022/10/14 05:54:18;;;;;;;;;3.00;3.00;;;;;16.76;77.62;100796.03;5092608;28;45264;-68
2022/10/14 05:56:43;;;;;;;;;1.67;1.67;;;;;16.67;77.69;100777.13;5089832;28;47876;-67
2022/10/14 05:59:09;;;;;;;;;4.00;3.00;;;;;16.73;78.03;100790.63;5063063;28;47712;-67
2022/10/14 06:01:36;;;;;;;;;3.67;2.67;;;;;16.57;78.14;100760.00;5071919;28;45424;-67
2022/10/14 06:04:02;;;;;;;;;6.00;3.00;;;;;16.75;77.94;100793.34;5075615;28;45345;-66
2022/10/14 06:06:28;;;;;;;;;4.33;3.33;;;;;16.75;78.37;100798.72;5075079;28;45654;-66
2022/10/14 06:08:54;;;;;;;;;5.33;5.33;;;;;16.75;77.91;100801.44;5074971;28;45543;-66
2022/10/14 06:11:19;;;;;;;;;3.33;3.33;;;;;16.66;78.33;100782.50;5080520;28;45304;-67
2022/10/14 06:13:44;;;;;;;;;2.33;2.00;;;;;16.76;78.02;100797.81;5074016;28;50909;-66
2022/10/14 06:16:10;;;;;;;;;4.00;4.00;;;;;16.69;78.20;100796.00;5074905;28;45568;-66
2022/10/14 06:18:36;;;;;;;;;3.67;3.33;;;;;16.64;78.35;100781.63;5076515;28;59233;-66
2022/10/14 06:21:03;;;;;;;;;5.33;3.67;;;;;16.72;78.24;100794.22;5087863;28;45175;-67
2022/10/14 06:23:29;;;;;;;;;5.00;4.33;;;;;16.69;78.19;100802.28;5085575;28;45727;-67
2022/10/14 06:25:54;;;;;;;;;6.00;3.00;;;;;16.72;78.05;100809.50;5086245;28;45776;-66
2022/10/14 06:28:20;;;;;;;;;9.67;6.33;;;;;16.32;78.39;100737.50;5074374;28;46672;-66
2022/10/14 06:30:52;;;;;;;;;12.33;5.33;;;;;16.72;78.32;100806.81;5073437;28;45398;-67
2022/10/14 06:33:18;;;;;;;;;6.33;4.00;;;;;16.70;78.00;100806.81;5074301;28;45409;-67
2022/10/14 06:35:44;;;;;;;;;7.00;6.00;;;;;16.67;78.63;100795.13;5074662;28;45361;-66
2022/10/14 06:38:09;;;;;;;;;4.67;4.67;;;;;16.59;77.65;100765.41;5074253;28;46230;-66
2022/10/14 06:40:35;;;;;;;;;9.00;6.33;;;;;16.74;77.88;100796.91;5073913;28;45501;-67
2022/10/14 06:43:01;;;;;;;;;9.33;7.67;;;;;16.72;77.63;100790.63;5074436;28;45576;-65
2022/10/14 06:45:26;;;;;;;;;6.67;5.00;;;;;16.73;78.09;100790.63;5073681;28;47078;-66
2022/10/14 06:47:52;;;;;;;;;5.67;4.67;;;;;16.76;77.63;100803.22;5073324;28;57507;-65
2022/10/14 06:50:17;;;;;;;;;8.33;6.33;;;;;16.80;77.73;100804.13;5083168;27;45622;-66
2022/10/14 06:52:45;;;;;;;;;8.00;4.00;;;;;16.82;77.14;100805.94;5094276;27;54572;-67
2022/10/14 06:55:11;;;;;;;;;3.33;3.00;;;;;16.82;77.58;100805.94;5093860;27;45563;-66
2022/10/14 06:57:36;;;;;;;;;4.67;4.67;;;;;16.83;76.61;100814.91;5094711;27;46103;-67
2022/10/14 07:00:03;;;;;;;;;5.00;5.00;;;;;16.68;77.08;100783.41;5095164;27;45460;-66
2022/10/14 07:02:29;;;;;;;;;3.00;2.33;;;;;16.71;77.11;100800.53;5095111;27;45374;-66
2022/10/14 07:04:54;;;;;;;;;4.67;3.33;;;;;16.53;76.36;100762.69;5094321;27;45372;-67
2022/10/14 07:07:19;;;;;;;;;6.00;6.00;;;;;16.84;76.56;100811.31;5094482;27;45708;-66
2022/10/14 07:09:45;;;;;;;;;6.00;5.00;;;;;16.84;76.60;100823.00;5094059;27;58141;-65
2022/10/14 07:12:10;;;;;;;;;6.33;3.00;;;;;16.83;76.32;100823.00;5094627;27;45318;-66
2022/10/14 07:14:35;;;;;;;;;3.67;3.33;;;;;16.85;76.26;100829.38;5094662;27;45470;-66
2022/10/14 07:17:01;;;;;;;;;1.00;1.00;;;;;16.85;76.16;100823.97;5094442;27;45977;-66
2022/10/14 07:19:26;;;;;;;;;5.00;5.00;;;;;16.82;75.65;100826.63;5094262;27;45403;-66
2022/10/14 07:21:51;;;;;;;;;3.00;3.00;;;;;16.81;75.95;100823.00;5094354;27;45530;-66
2022/10/14 07:24:17;;;;;;;;;5.00;3.00;;;;;16.80;75.92;100831.13;5094236;27;45356;-66
2022/10/14 07:26:42;;;;;;;;;1.00;1.00;;;;;16.85;74.09;100832.94;5093267;27;56892;-66
2022/10/14 07:29:07;;;;;;;;;3.00;3.00;;;;;16.79;74.45;100837.41;5094394;27;48362;-67
2022/10/14 07:31:33;;;;;;;;;3.67;2.33;;;;;16.69;74.54;100831.09;5094601;27;45444;-66
2022/10/14 07:34:00;;;;;;;;;4.67;4.67;;;;;16.76;74.52;100840.97;5093386;27;45421;-67
2022/10/14 07:36:26;;;;;;;;;2.33;1.00;;;;;16.73;73.65;100844.59;5094004;27;46240;-67
2022/10/14 07:38:51;;;;;;;;;2.67;2.00;;;;;16.74;74.29;100851.75;5094212;27;45311;-65
2022/10/14 07:41:20;;;;;;;;;2.67;2.33;;;;;16.74;73.86;100849.06;5094809;27;45412;-67
2022/10/14 07:43:52;;;;;;;;;2.00;2.00;;;;;16.78;73.71;100858.09;5094648;27;46300;-67
2022/10/14 07:46:28;;;;;;;;;0.67;0.67;;;;;16.69;73.47;100840.06;5093812;27;46374;-66
2022/10/14 07:48:58;;;;;;;;;4.00;1.00;;;;;16.76;73.20;100860.78;5094297;27;45388;-67
2022/10/14 07:51:24;;;;;;;;;2.33;2.33;;;;;16.71;73.60;100854.47;5092320;27;45549;-67
2022/10/14 07:53:51;;;;;;;;;2.00;2.00;;;;;16.76;74.16;100863.50;5094393;27;45384;-66
2022/10/14 07:56:17;;;;;;;;;2.67;2.00;;;;;16.64;73.63;100839.16;5093166;27;45849;-66
2022/10/14 07:58:42;;;;;;;;;1.67;1.67;;;;;16.80;73.72;100860.81;5091997;27;45326;-67
2022/10/14 08:01:07;;;;;;;;;2.33;2.00;;;;;16.83;74.15;100869.81;5093697;27;45476;-68
2022/10/14 08:03:33;;;;;;;;;3.33;2.33;;;;;16.73;73.82;100847.28;5094652;27;45749;-66
2022/10/14 08:06:00;;;;;;;;;4.00;4.00;;;;;16.86;73.71;100860.81;5093315;27;60732;-66
2022/10/14 08:08:27;;;;;;;;;4.00;2.67;;;;;16.86;73.46;100872.53;5093582;27;45332;-66
2022/10/14 08:11:18;;;;;;;;;6.33;2.00;;;;;16.77;73.60;100865.28;5093779;27;45489;-67
2022/10/14 08:13:45;;;;;;;;;4.67;2.67;;;;;16.90;73.49;100876.16;5093280;27;45430;-67
2022/10/14 08:16:16;;;;;;;;;3.33;3.33;;;;;16.91;73.36;100883.31;5093470;27;46641;-66
2022/10/14 08:18:42;;;;;;;;;2.67;2.67;;;;;16.91;73.29;100886.03;5087017;27;46109;-67
2022/10/14 08:21:07;;;;;;;;;3.67;2.33;;;;;16.89;72.57;100879.72;5093843;27;45269;-67
2022/10/14 08:23:33;;;;;;;;;8.00;4.00;;;;;16.90;73.28;100887.84;5093919;27;45568;-67
2022/10/14 08:25:58;;;;;;;;;5.00;3.00;;;;;16.88;72.35;100876.13;5093380;27;49172;-67
2022/10/14 08:28:23;;;;;;;;;4.00;2.00;;;;;16.93;72.33;100884.25;5093288;27;45805;-67
2022/10/14 08:30:49;;;;;;;;;5.00;5.00;;;;;16.97;72.96;100887.84;5092936;27;47357;-66
2022/10/14 08:33:14;;;;;;;;;2.00;2.00;;;;;16.98;72.22;100884.25;5093720;27;45552;-66
2022/10/14 08:35:39;;;;;;;;;1.33;1.33;;;;;16.93;72.02;100885.16;5093331;27;45507;-67
2022/10/14 08:38:05;;;;;;;;;2.00;1.00;;;;;16.87;71.43;100887.81;5097187;27;45444;-66
2022/10/14 08:41:01;;;;;;;;;2.00;2.00;;;;;16.77;72.29;100876.06;5096980;27;45328;-66
2022/10/14 08:43:33;;;;;;;;;4.33;2.67;;;;;16.71;72.58;100873.38;5097049;27;45456;-65
2022/10/14 08:46:39;;;;;;;;;3.33;3.33;;;;;16.83;72.86;100886.00;5096447;27;46352;-65
2022/10/14 08:49:19;;;;;;;;;3.67;2.67;;;;;16.88;72.74;100886.03;5074411;27;45570;-67
2022/10/14 08:51:50;;;;;;;;;5.67;4.00;;;;;16.75;73.13;100858.09;5091449;27;45378;-65
2022/10/14 08:54:28;;;;;;;;;5.33;3.33;;;;;16.92;73.07;100886.03;5097005;27;45539;-66
2022/10/14 08:56:54;;;;;;;;;9.33;7.33;;;;;16.93;73.41;100887.84;5096839;27;46144;-66
2022/10/14 08:59:21;;;;;;;;;8.00;5.00;;;;;16.95;72.93;100885.16;5096904;27;45443;-67
2022/10/14 09:01:59;;;;;;;;;8.00;5.00;;;;;16.97;72.80;100882.47;5097566;27;45419;-66
2022/10/14 09:04:24;;;;;;;;;4.33;2.67;;;;;16.92;72.92;100867.13;5096916;27;45398;-68
2022/10/14 09:06:53;;;;;;;;;6.00;3.67;;;;;16.85;72.88;100864.44;5091772;27;45479;-66
2022/10/14 09:09:39;;;;;;;;;3.67;3.00;;;;;17.01;73.30;100886.94;5097140;27;45554;-67
2022/10/14 09:12:10;;;;;;;;;1.00;1.00;;;;;16.98;72.20;100873.44;5096192;27;45419;-66
2022/10/14 09:14:41;;;;;;;;;4.00;4.00;;;;;16.71;72.63;100814.00;5096750;27;45604;-66
2022/10/14 09:17:19;;;;;;;;;1.00;1.00;;;;;16.98;72.80;100857.25;5089504;27;46853;-66
2022/10/14 09:19:49;;;;;;;;;2.00;2.00;;;;;17.10;73.07;100862.69;5095923;27;45522;-67
2022/10/14 09:22:14;;;;;;;;;2.33;2.33;;;;;16.99;72.57;100849.16;5096548;27;45385;-68
2022/10/14 09:24:43;;;;;;;;;3.33;3.33;;;;;17.09;72.88;100850.06;5094793;27;45943;-68
2022/10/14 09:27:17;;;;;;;;;3.67;3.00;;;;;16.74;72.86;100786.13;5095654;27;45614;-67
2022/10/14 09:29:49;;;;;;;;;8.00;6.33;;;;;16.67;72.90;100765.44;5096252;27;45351;-67
2022/10/14 09:32:38;;;;;;;;;5.67;5.33;;;;;17.21;72.85;100859.97;5096137;27;45416;-67
2022/10/14 09:35:13;;;;;;;;;8.00;5.67;;;;;17.19;72.37;100856.38;5096265;27;45350;-67
2022/10/14 09:37:38;;;;;;;;;5.33;5.33;;;;;17.17;72.10;100850.09;5089510;27;46357;-66
2022/10/14 09:40:12;;;;;;;;;8.00;3.00;;;;;17.13;72.87;100841.97;5096239;27;45449;-68
2022/10/14 09:42:58;;;;;;;;;6.33;4.00;;;;;17.19;72.48;100853.69;5086997;27;45377;-67
2022/10/14 09:45:26;;;;;;;;;5.67;4.00;;;;;17.04;72.31;100823.09;5096146;27;45539;-67
2022/10/14 09:47:58;;;;;;;;;11.00;8.00;;;;;17.19;72.37;100859.09;5094528;27;45474;-68
2022/10/14 09:50:26;;;;;;;;;11.67;9.00;;;;;17.13;72.49;100844.69;5095655;27;45743;-67
2022/10/14 09:52:56;;;;;;;;;10.33;10.00;;;;;17.04;72.48;100833.91;5095775;27;45456;-68
2022/10/14 09:55:25;;;;;;;;;10.67;10.67;;;;;17.08;72.47;100834.78;5096048;27;45312;-68
2022/10/14 09:58:05;;;;;;;;;12.33;10.33;;;;;17.18;73.08;100844.69;5095223;27;46289;-67
2022/10/14 10:00:35;;;;;;;;;6.33;6.33;;;;;17.23;72.45;100851.00;5095239;27;45404;-67
2022/10/14 10:03:00;;;;;;;;;9.00;9.00;;;;;17.18;72.42;100842.00;5095334;27;45424;-67
2022/10/14 10:05:32;;;;;;;;;16.33;12.00;;;;;17.23;72.89;100855.50;5095339;27;45600;-67
2022/10/14 10:08:15;;;;;;;;;8.67;6.00;;;;;17.23;72.61;100855.50;5093575;27;46280;-68
2022/10/14 10:10:54;;;;;;;;;8.33;7.00;;;;;17.26;73.02;100855.50;5089585;27;45500;-66
2022/10/14 10:13:22;;;;;;;;;7.00;6.33;;;;;17.30;72.54;100844.69;5095832;27;45553;-67
2022/10/14 10:16:02;;;;;;;;;9.00;7.67;;;;;17.34;71.91;100853.72;5095757;27;45375;-67
2022/10/14 10:18:28;;;;;;;;;6.00;6.00;;;;;17.40;72.31;100848.28;5095029;27;46556;-68
2022/10/14 10:21:06;;;;;;;;;6.67;5.67;;;;;17.35;71.80;100833.00;5095796;27;45444;-68
2022/10/14 10:23:34;;;;;;;;;6.00;3.67;;;;;17.44;71.15;100839.31;5095490;27;45317;-67
2022/10/14 10:26:14;;;;;;;;;3.33;3.33;;;;;17.31;71.23;100824.91;5095433;27;45598;-67
2022/10/14 10:28:44;;;;;;;;;7.67;5.67;;;;;17.49;71.14;100840.19;5098053;27;46361;-69
2022/10/14 10:31:31;;;;;;;;;10.67;9.00;;;;;17.40;71.00;100809.59;5095779;27;45296;-67
2022/10/14 10:34:08;;;;;;;;;9.67;6.33;;;;;17.57;70.28;100831.16;5094613;27;45328;-68
2022/10/14 10:36:40;;;;;;;;;4.00;4.00;;;;;17.60;69.94;100831.16;5093552;27;45514;-68
2022/10/14 10:39:14;;;;;;;;;12.33;6.00;;;;;17.62;69.63;100840.16;5093299;27;45949;-68
2022/10/14 10:41:52;;;;;;;;;7.33;5.00;;;;;17.65;69.76;100829.34;5094137;27;45466;-68
2022/10/14 10:44:39;;;;;;;;;4.33;3.33;;;;;17.69;70.12;100826.66;5091315;27;45376;-67
2022/10/14 10:47:10;;;;;;;;;5.33;4.67;;;;;17.73;69.54;100819.44;5094617;27;45722;-67
2022/10/14 10:49:59;;;;;;;;;3.00;3.00;;;;;17.79;68.78;100813.13;5094351;27;45414;-68
2022/10/14 10:52:31;;;;;;;;;7.33;7.33;;;;;17.79;68.75;100811.31;5094649;27;45516;-67
2022/10/14 10:54:59;;;;;;;;;8.00;4.00;;;;;17.83;68.43;100805.00;5094420;27;45546;-67
2022/10/14 10:57:28;;;;;;;;;4.67;4.67;;;;;17.87;67.87;100800.53;5088458;27;45479;-68
2022/10/14 11:00:19;;;;;;;;;3.33;3.00;;;;;17.81;68.18;100770.78;5095734;27;47247;-67
2022/10/14 11:02:57;;;;;;;;;4.00;4.00;;;;;17.95;67.71;100781.56;5094159;27;45322;-67
2022/10/14 11:05:37;;;;;;;;;3.67;3.67;;;;;17.59;66.66;100713.22;5094661;27;45705;-67
2022/10/14 11:12:06;;;;;;;;;2.33;2.00;;;;;17.94;65.52;100793.31;5091063;27;45714;-68
2022/10/14 11:14:56;;;;;;;;;2.67;1.00;;;;;17.84;65.80;100796.00;5016920;28;45491;-68
2022/10/14 11:17:43;;;;;;;;;1.00;1.00;;;;;17.79;66.46;100789.72;5015388;28;45930;-69
2022/10/14 11:20:26;;;;;;;;;3.00;3.00;;;;;17.63;66.95;100764.50;5088448;27;45303;-67
2022/10/14 11:23:05;;;;;;;;;4.33;2.33;;;;;17.75;67.09;100776.19;5087475;27;45471;-67
2022/10/14 11:25:51;;;;;;;;;4.00;4.00;;;;;17.74;68.06;100771.72;5089125;27;45484;-67
2022/10/14 11:28:36;;;;;;;;;5.00;3.00;;;;;17.63;68.50;100744.72;5094319;27;45490;-67
2022/10/14 11:31:11;;;;;;;;;3.33;3.33;;;;;17.69;69.47;100750.13;5088701;27;46479;-67
2022/10/14 11:33:51;;;;;;;;;5.33;5.33;;;;;17.39;69.79;100694.34;5089554;27;45716;-66
2022/10/14 11:36:33;;;;;;;;;3.00;3.00;;;;;17.67;70.48;100724.91;5099366;27;45549;-67
2022/10/14 11:39:23;;;;;;;;;8.00;8.00;;;;;17.80;71.09;100741.94;5109323;27;45042;-67
2022/10/14 11:42:03;;;;;;;;;6.00;4.33;;;;;17.83;71.27;100741.94;5110564;27;45101;-65